createdAt,value
2017-11-03T00:00:39.657Z,8.80
2017-11-03T00:03:07.988Z,8.84
2017-11-03T00:05:36.326Z,8.91
2017-11-03T00:08:04.641Z,8.86
2017-11-03T00:10:32.954Z,8.81
2017-11-03T00:13:01.295Z,8.78
2017-11-03T00:15:29.632Z,8.75
2017-11-03T00:17:58.716Z,8.72
2017-11-03T00:20:27.044Z,8.69
2017-11-03T00:22:55.353Z,8.66
2017-11-03T00:25:23.680Z,8.61
2017-11-03T00:27:52.757Z,8.56
2017-11-03T00:30:21.068Z,8.53
2017-11-03T00:32:49.386Z,8.49
2017-11-03T00:35:17.705Z,8.46
2017-11-03T00:37:46.770Z,8.43
2017-11-03T00:40:15.086Z,8.44
2017-11-03T00:42:43.385Z,8.48
2017-11-03T00:45:11.691Z,8.44
2017-11-03T00:47:40.025Z,8.39
2017-11-03T00:50:08.325Z,8.33
2017-11-03T00:52:36.622Z,8.29
2017-11-03T00:55:04.955Z,8.29
2017-11-03T00:57:33.269Z,8.30
2017-11-03T01:00:01.602Z,8.28
2017-11-03T01:02:29.908Z,8.25
2017-11-03T01:04:58.229Z,8.24
2017-11-03T01:07:26.533Z,8.19
2017-11-03T01:09:55.617Z,8.21
2017-11-03T01:12:24.677Z,8.27
2017-11-03T01:14:52.996Z,8.34
2017-11-03T01:17:22.053Z,8.38
2017-11-03T01:19:50.424Z,8.42
2017-11-03T01:22:18.741Z,8.45
2017-11-03T01:24:47.812Z,8.44
2017-11-03T01:27:16.127Z,8.37
2017-11-03T01:29:44.427Z,8.34
2017-11-03T01:32:12.757Z,8.27
2017-11-03T01:34:41.055Z,8.23
2017-11-03T01:37:09.361Z,8.16
2017-11-03T01:39:37.654Z,8.06
2017-11-03T01:42:05.972Z,7.99
2017-11-03T01:44:35.052Z,7.92
2017-11-03T01:47:03.357Z,7.84
2017-11-03T01:49:31.660Z,7.79
2017-11-03T01:51:59.981Z,7.79
2017-11-03T01:54:28.326Z,7.77
2017-11-03T01:56:56.642Z,7.82
2017-11-03T01:59:24.944Z,7.74
2017-11-03T02:01:53.263Z,7.68
2017-11-03T02:04:21.583Z,7.63
2017-11-03T02:06:50.657Z,7.56
2017-11-03T02:09:18.968Z,7.52
2017-11-03T02:11:48.045Z,7.49
2017-11-03T02:14:17.136Z,7.46
2017-11-03T02:16:45.459Z,7.36
2017-11-03T02:19:13.757Z,7.43
2017-11-03T02:21:42.061Z,7.49
2017-11-03T02:24:10.378Z,7.50
2017-11-03T02:26:38.681Z,7.49
2017-11-03T02:29:06.995Z,7.43
2017-11-03T02:31:35.313Z,7.35
2017-11-03T02:34:03.608Z,7.37
2017-11-03T02:36:31.929Z,7.42
2017-11-03T02:39:00.246Z,7.52
2017-11-03T02:41:28.553Z,7.67
2017-11-03T02:43:56.848Z,7.85
2017-11-03T02:46:25.170Z,8.01
2017-11-03T02:48:53.480Z,8.16
2017-11-03T02:51:21.797Z,8.32
2017-11-03T02:53:50.871Z,8.47
2017-11-03T02:56:19.203Z,8.60
2017-11-03T02:58:47.510Z,8.72
2017-11-03T03:01:15.839Z,8.82
2017-11-03T03:03:44.918Z,8.87
2017-11-03T03:06:13.235Z,8.95
2017-11-03T03:08:41.611Z,8.98
2017-11-03T03:11:09.996Z,8.99
2017-11-03T03:13:38.315Z,9.07
2017-11-03T03:16:06.642Z,9.14
2017-11-03T03:18:34.952Z,9.14
2017-11-03T03:21:03.279Z,9.11
2017-11-03T03:23:32.368Z,9.07
2017-11-03T03:26:01.502Z,9.03
2017-11-03T03:28:29.815Z,9.00
2017-11-03T03:30:58.139Z,9.09
2017-11-03T03:33:26.450Z,9.07
2017-11-03T03:35:54.777Z,9.11
2017-11-03T03:38:23.867Z,9.06
2017-11-03T03:40:52.938Z,8.99
2017-11-03T03:43:21.257Z,8.96
2017-11-03T03:45:49.567Z,8.99
2017-11-03T03:48:17.898Z,8.95
2017-11-03T03:50:46.229Z,9.02
2017-11-03T03:53:14.567Z,9.10
2017-11-03T03:55:42.895Z,9.00
2017-11-03T03:58:11.222Z,9.06
2017-11-03T04:00:40.297Z,9.10
2017-11-03T04:03:09.383Z,9.03
2017-11-03T04:05:37.693Z,8.95
2017-11-03T04:08:06.029Z,8.90
2017-11-03T04:10:34.339Z,8.93
2017-11-03T04:13:03.424Z,8.93
2017-11-03T04:15:31.765Z,8.94
2017-11-03T04:18:00.085Z,8.97
2017-11-03T04:20:29.168Z,8.94
2017-11-03T04:22:57.490Z,9.02
2017-11-03T04:25:25.822Z,9.06
2017-11-03T04:27:54.177Z,9.07
2017-11-03T04:30:22.490Z,9.13
2017-11-03T04:32:51.582Z,9.19
2017-11-03T04:35:20.715Z,9.23
2017-11-03T04:37:49.070Z,9.22
2017-11-03T04:40:17.386Z,9.25
2017-11-03T04:42:45.714Z,9.18
2017-11-03T04:45:14.786Z,9.19
2017-11-03T04:47:43.102Z,9.05
2017-11-03T04:50:11.419Z,8.84
2017-11-03T04:52:39.742Z,8.73
2017-11-03T04:55:08.819Z,8.67
2017-11-03T04:57:37.131Z,8.66
2017-11-03T05:00:05.447Z,8.65
2017-11-03T05:02:33.772Z,8.63
2017-11-03T05:05:02.870Z,8.62
2017-11-03T05:07:31.942Z,8.55
2017-11-03T05:10:00.261Z,8.47
2017-11-03T05:12:28.566Z,8.38
2017-11-03T05:14:56.894Z,8.36
2017-11-03T05:17:25.994Z,8.38
2017-11-03T05:19:55.069Z,8.41
2017-11-03T05:22:23.381Z,8.48
2017-11-03T05:24:51.713Z,8.46
2017-11-03T05:27:20.017Z,8.43
2017-11-03T05:29:49.104Z,8.41
2017-11-03T05:32:18.180Z,8.34
2017-11-03T05:34:46.506Z,8.36
2017-11-03T05:37:14.810Z,8.41
2017-11-03T05:39:43.134Z,8.52
2017-11-03T05:42:11.434Z,8.62
2017-11-03T05:44:39.765Z,8.55
2017-11-03T05:47:08.088Z,8.58
2017-11-03T05:49:36.406Z,8.56
2017-11-03T05:52:04.768Z,8.58
2017-11-03T05:54:33.085Z,8.55
2017-11-03T05:57:01.385Z,8.59
2017-11-03T05:59:30.462Z,8.66
2017-11-03T06:01:58.762Z,8.75
2017-11-03T06:04:27.082Z,8.85
2017-11-03T06:06:55.411Z,8.95
2017-11-03T06:09:24.490Z,8.92
2017-11-03T06:11:52.790Z,8.94
2017-11-03T06:14:21.123Z,8.96
2017-11-03T06:16:49.451Z,8.87
2017-11-03T06:19:17.798Z,8.78
2017-11-03T06:21:46.106Z,8.72
2017-11-03T06:24:14.433Z,8.87
2017-11-03T06:26:43.562Z,8.98
2017-11-03T06:29:12.646Z,8.77
2017-11-03T06:31:40.946Z,8.61
2017-11-03T06:34:09.285Z,8.53
2017-11-03T06:36:37.590Z,8.48
2017-11-03T06:39:06.671Z,8.33
2017-11-03T06:41:34.970Z,8.34
2017-11-03T06:44:04.050Z,8.38
2017-11-03T06:46:33.119Z,8.40
2017-11-03T06:49:01.436Z,8.45
2017-11-03T06:51:30.518Z,8.46
2017-11-03T06:53:59.601Z,8.53
2017-11-03T06:56:27.902Z,8.51
2017-11-03T06:58:56.974Z,8.45
2017-11-03T07:01:25.282Z,8.47
2017-11-03T07:03:53.598Z,8.43
2017-11-03T07:06:21.908Z,8.56
2017-11-03T07:08:50.210Z,8.66
2017-11-03T07:11:19.282Z,8.57
2017-11-03T07:13:47.579Z,8.53
2017-11-03T07:16:16.654Z,8.51
2017-11-03T07:18:44.958Z,8.55
2017-11-03T07:21:13.295Z,8.56
2017-11-03T07:23:41.631Z,8.62
2017-11-03T07:26:09.953Z,8.76
2017-11-03T07:28:38.257Z,8.88
2017-11-03T07:31:07.337Z,9.22
2017-11-03T07:33:35.630Z,9.14
2017-11-03T07:36:04.708Z,9.27
2017-11-03T07:38:33.011Z,9.31
2017-11-03T07:41:01.348Z,9.45
2017-11-03T07:43:29.653Z,9.47
2017-11-03T07:45:58.740Z,9.72
2017-11-03T07:48:28.632Z,9.83
2017-11-03T07:50:56.958Z,9.97
2017-11-03T07:53:25.274Z,10.01
2017-11-03T07:55:54.207Z,10.03
2017-11-03T07:58:23.293Z,10.03
2017-11-03T08:00:51.605Z,10.09
2017-11-03T08:03:19.914Z,10.18
2017-11-03T08:05:48.225Z,10.35
2017-11-03T08:08:16.550Z,10.26
2017-11-03T08:10:44.869Z,10.49
2017-11-03T08:13:13.186Z,10.35
2017-11-03T08:15:41.514Z,10.41
2017-11-03T08:18:09.819Z,10.31
2017-11-03T08:20:38.913Z,10.35
2017-11-03T08:23:08.002Z,10.42
2017-11-03T08:25:36.324Z,10.33
2017-11-03T08:28:04.641Z,10.54
2017-11-03T08:30:32.958Z,10.43
2017-11-03T08:33:01.270Z,10.64
2017-11-03T08:35:29.585Z,10.60
2017-11-03T08:37:57.890Z,10.67
2017-11-03T08:40:26.217Z,10.84
2017-11-03T08:42:54.530Z,11.02
2017-11-03T08:45:23.617Z,11.15
2017-11-03T08:47:51.934Z,11.43
2017-11-03T08:50:20.262Z,12.17
2017-11-03T08:52:48.575Z,15.70
2017-11-03T08:55:16.946Z,18.52
2017-11-03T08:57:46.014Z,19.57
2017-11-03T09:00:14.330Z,18.88
2017-11-03T09:02:42.638Z,20.69
2017-11-03T09:05:10.954Z,21.17
2017-11-03T09:07:39.272Z,21.56
2017-11-03T09:10:07.600Z,19.41
2017-11-03T09:12:35.939Z,19.55
2017-11-03T09:15:04.254Z,20.01
2017-11-03T09:17:32.563Z,19.11
2017-11-03T09:20:01.643Z,20.19
2017-11-03T09:22:30.759Z,19.97
2017-11-03T09:24:59.074Z,19.94
2017-11-03T09:27:27.402Z,19.10
2017-11-03T09:29:55.734Z,19.38
2017-11-03T09:32:24.058Z,17.67
2017-11-03T09:34:53.138Z,15.52
2017-11-03T09:37:21.459Z,14.39
2017-11-03T09:39:49.782Z,13.53
2017-11-03T09:42:18.125Z,12.90
2017-11-03T09:44:46.438Z,12.87
2017-11-03T09:47:14.776Z,12.27
2017-11-03T09:49:43.087Z,12.25
2017-11-03T09:52:11.426Z,12.35
2017-11-03T09:54:39.730Z,12.36
2017-11-03T09:57:08.058Z,12.34
2017-11-03T09:59:36.374Z,12.75
2017-11-03T10:02:04.686Z,12.68
2017-11-03T10:04:33.008Z,12.46
2017-11-03T10:07:01.339Z,12.60
2017-11-03T10:09:29.646Z,12.57
2017-11-03T10:11:57.973Z,12.85
2017-11-03T10:14:26.318Z,12.77
2017-11-03T10:16:54.638Z,12.64
2017-11-03T10:19:22.953Z,12.65
2017-11-03T10:21:52.043Z,12.34
2017-11-03T10:24:21.110Z,12.38
2017-11-03T10:26:49.438Z,12.14
2017-11-03T10:29:17.757Z,12.09
2017-11-03T10:31:46.073Z,12.05
2017-11-03T10:34:14.397Z,12.04
2017-11-03T10:36:42.715Z,12.09
2017-11-03T10:39:11.787Z,12.24
2017-11-03T10:41:40.118Z,12.28
2017-11-03T10:44:08.434Z,12.34
2017-11-03T10:46:36.785Z,12.45
2017-11-03T10:49:05.094Z,12.45
2017-11-03T10:51:33.419Z,12.56
2017-11-03T10:54:01.743Z,12.61
2017-11-03T10:56:30.062Z,12.63
2017-11-03T10:58:59.128Z,12.69
2017-11-03T11:01:27.452Z,12.64
2017-11-03T11:03:55.765Z,12.65
2017-11-03T11:06:24.089Z,12.44
2017-11-03T11:08:53.161Z,12.55
2017-11-03T11:11:21.482Z,12.57
2017-11-03T11:13:49.810Z,12.74
2017-11-03T11:16:18.131Z,12.91
2017-11-03T11:18:46.441Z,12.90
2017-11-03T11:21:14.786Z,13.13
2017-11-03T11:23:43.106Z,13.22
2017-11-03T11:26:11.421Z,13.12
2017-11-03T11:28:40.490Z,13.14
2017-11-03T11:31:08.793Z,13.13
2017-11-03T11:33:37.877Z,13.21
2017-11-03T11:36:06.229Z,13.16
2017-11-03T11:38:34.547Z,13.07
2017-11-03T11:41:03.622Z,13.00
2017-11-03T11:43:31.933Z,13.06
2017-11-03T11:46:00.259Z,13.18
2017-11-03T11:48:28.574Z,13.14
2017-11-03T11:50:57.646Z,13.43
2017-11-03T11:53:25.970Z,13.65
2017-11-03T11:55:54.282Z,13.74
2017-11-03T11:58:22.597Z,13.65
2017-11-03T12:00:51.670Z,13.56
2017-11-03T12:03:19.989Z,13.70
2017-11-03T12:05:48.294Z,13.79
2017-11-03T12:08:16.605Z,13.90
2017-11-03T12:10:44.918Z,13.91
2017-11-03T12:13:13.237Z,13.97
2017-11-03T12:15:41.548Z,13.83
2017-11-03T12:18:10.635Z,14.13
2017-11-03T12:20:38.961Z,14.00
2017-11-03T12:23:07.289Z,14.14
2017-11-03T12:25:35.598Z,14.25
2017-11-03T12:28:03.906Z,14.46
2017-11-03T12:30:32.214Z,14.59
2017-11-03T12:33:00.536Z,14.73
2017-11-03T12:35:28.861Z,14.86
2017-11-03T12:37:57.182Z,14.85
2017-11-03T12:40:26.254Z,14.84
2017-11-03T12:42:54.586Z,14.86
2017-11-03T12:45:22.898Z,14.72
2017-11-03T12:47:51.221Z,14.65
2017-11-03T12:50:19.538Z,14.68
2017-11-03T12:52:47.856Z,14.77
2017-11-03T12:55:16.934Z,14.95
2017-11-03T12:57:45.246Z,14.84
2017-11-03T13:00:13.596Z,15.03
2017-11-03T13:02:42.671Z,14.98
2017-11-03T13:05:11.000Z,15.01
2017-11-03T13:07:40.310Z,14.99
2017-11-03T13:10:08.627Z,15.17
2017-11-03T13:12:36.950Z,15.06
2017-11-03T13:15:05.266Z,14.99
2017-11-03T13:17:33.590Z,15.06
2017-11-03T13:20:02.682Z,14.75
2017-11-03T13:22:30.998Z,14.93
2017-11-03T13:24:59.322Z,15.02
2017-11-03T13:27:27.618Z,15.00
2017-11-03T13:29:56.698Z,15.01
2017-11-03T13:32:25.773Z,15.16
2017-11-03T13:34:54.136Z,14.90
2017-11-03T13:37:22.441Z,15.05
2017-11-03T13:39:50.762Z,15.07
2017-11-03T13:42:19.066Z,14.90
2017-11-03T13:44:47.407Z,14.98
2017-11-03T13:47:15.710Z,14.96
2017-11-03T13:49:44.025Z,14.68
2017-11-03T13:52:12.326Z,14.64
2017-11-03T13:54:41.411Z,14.25
2017-11-03T13:57:10.486Z,14.00
2017-11-03T13:59:38.813Z,13.76
2017-11-03T14:02:07.126Z,13.57
2017-11-03T14:04:35.446Z,13.41
2017-11-03T14:07:04.514Z,13.31
2017-11-03T14:09:32.830Z,13.32
2017-11-03T14:12:01.138Z,13.33
2017-11-03T14:14:29.448Z,13.39
2017-11-03T14:16:57.749Z,13.47
2017-11-03T14:19:26.834Z,13.57
2017-11-03T14:21:55.141Z,13.74
2017-11-03T14:24:23.451Z,13.84
2017-11-03T14:26:51.770Z,14.01
2017-11-03T14:29:20.859Z,13.98
2017-11-03T14:31:49.193Z,14.17
2017-11-03T14:34:17.520Z,14.14
2017-11-03T14:36:46.594Z,13.98
2017-11-03T14:39:14.906Z,13.82
2017-11-03T14:41:43.981Z,13.67
2017-11-03T14:44:12.294Z,13.49
2017-11-03T14:46:41.373Z,13.33
2017-11-03T14:49:09.698Z,13.22
2017-11-03T14:51:37.998Z,13.21
2017-11-03T14:54:06.307Z,13.24
2017-11-03T14:56:34.626Z,13.29
2017-11-03T14:59:02.985Z,13.31
2017-11-03T15:01:31.312Z,13.28
2017-11-03T15:03:59.622Z,13.25
2017-11-03T15:06:27.939Z,13.22
2017-11-03T15:08:56.246Z,13.19
2017-11-03T15:11:24.553Z,13.15
2017-11-03T15:13:52.859Z,13.13
2017-11-03T15:16:21.194Z,13.14
2017-11-03T15:18:50.274Z,13.12
2017-11-03T15:21:18.600Z,13.08
2017-11-03T15:23:46.914Z,13.09
2017-11-03T15:26:15.233Z,13.03
2017-11-03T15:28:43.585Z,12.97
2017-11-03T15:31:11.904Z,12.86
2017-11-03T15:33:40.210Z,12.72
2017-11-03T15:36:08.530Z,12.63
2017-11-03T15:38:37.604Z,12.59
2017-11-03T15:41:05.919Z,12.46
2017-11-03T15:43:34.225Z,12.74
2017-11-03T15:46:02.547Z,12.80
2017-11-03T15:48:30.857Z,13.25
2017-11-03T15:50:59.171Z,13.75
2017-11-03T15:53:27.483Z,13.96
2017-11-03T15:55:56.573Z,13.87
2017-11-03T15:58:24.881Z,13.37
2017-11-03T16:00:53.198Z,12.76
2017-11-03T16:03:21.514Z,12.45
2017-11-03T16:05:50.601Z,12.20
2017-11-03T16:08:18.925Z,11.98
2017-11-03T16:10:47.245Z,11.93
2017-11-03T16:13:15.550Z,11.86
2017-11-03T16:15:44.638Z,11.77
2017-11-03T16:18:13.722Z,11.64
2017-11-03T16:20:42.050Z,11.47
2017-11-03T16:23:10.364Z,11.32
2017-11-03T16:25:38.696Z,11.31
2017-11-03T16:28:07.027Z,11.33
2017-11-03T16:30:35.362Z,11.35
2017-11-03T16:33:03.670Z,11.36
2017-11-03T16:35:31.995Z,11.37
2017-11-03T16:38:00.308Z,11.33
2017-11-03T16:40:28.642Z,11.30
2017-11-03T16:42:57.721Z,11.24
2017-11-03T16:45:26.810Z,11.16
2017-11-03T16:47:55.136Z,11.13
2017-11-03T16:50:23.456Z,11.07
2017-11-03T16:52:51.778Z,11.04
2017-11-03T16:55:20.086Z,11.01
2017-11-03T16:57:48.411Z,10.93
2017-11-03T17:00:20.463Z,10.77
2017-11-03T17:02:49.581Z,10.64
2017-11-03T17:05:18.652Z,10.56
2017-11-03T17:07:47.749Z,10.48
2017-11-03T17:10:16.831Z,10.46
2017-11-03T17:12:45.158Z,10.45
2017-11-03T17:15:13.473Z,10.52
2017-11-03T17:17:42.568Z,10.52
2017-11-03T17:20:10.902Z,10.46
2017-11-03T17:22:39.228Z,10.40
2017-11-03T17:25:07.543Z,10.29
2017-11-03T17:27:36.626Z,10.18
2017-11-03T17:30:05.707Z,10.10
2017-11-03T17:32:34.056Z,10.01
2017-11-03T17:35:02.394Z,9.95
2017-11-03T17:37:31.503Z,9.85
2017-11-03T17:39:59.816Z,9.75
2017-11-03T17:42:28.158Z,9.66
2017-11-03T17:44:56.473Z,9.59
2017-11-03T17:47:24.794Z,9.49
2017-11-03T17:49:53.884Z,9.36
2017-11-03T17:52:22.986Z,9.19
2017-11-03T17:54:52.054Z,9.07
2017-11-03T17:57:20.370Z,8.95
2017-11-03T17:59:48.675Z,8.87
2017-11-03T18:02:17.043Z,8.74
2017-11-03T18:04:45.362Z,8.62
2017-11-03T18:07:13.676Z,8.61
2017-11-03T18:09:41.995Z,8.50
2017-11-03T18:12:10.359Z,8.42
2017-11-03T18:14:38.666Z,8.43
2017-11-03T18:17:06.970Z,8.38
2017-11-03T18:19:36.064Z,8.37
2017-11-03T18:22:05.138Z,8.27
2017-11-03T18:24:33.482Z,8.15
2017-11-03T18:27:01.819Z,8.13
2017-11-03T18:29:30.925Z,8.14
2017-11-03T18:31:59.230Z,8.04
2017-11-03T18:34:27.544Z,7.95
2017-11-03T18:36:55.908Z,7.83
2017-11-03T18:39:24.245Z,7.84
2017-11-03T18:41:52.552Z,7.83
2017-11-03T18:44:21.633Z,7.71
2017-11-03T18:46:49.949Z,7.68
2017-11-03T18:49:18.332Z,7.63
2017-11-03T18:51:46.640Z,7.61
2017-11-03T18:54:14.999Z,7.58
2017-11-03T18:56:43.361Z,7.52
2017-11-03T18:59:11.678Z,7.53
2017-11-03T19:01:40.032Z,7.48
2017-11-03T19:04:08.358Z,7.46
2017-11-03T19:06:36.690Z,7.47
2017-11-03T19:09:05.774Z,7.40
2017-11-03T19:11:34.121Z,7.38
2017-11-03T19:14:02.431Z,7.36
2017-11-03T19:16:30.743Z,7.28
2017-11-03T19:18:59.078Z,7.29
2017-11-03T19:21:27.399Z,7.24
2017-11-03T19:23:55.722Z,7.18
2017-11-03T19:26:24.036Z,7.13
2017-11-03T19:28:53.181Z,7.16
2017-11-03T19:31:21.510Z,7.14
2017-11-03T19:33:50.655Z,7.14
2017-11-03T19:36:18.954Z,7.08
2017-11-03T19:38:47.332Z,7.08
2017-11-03T19:41:15.639Z,7.06
2017-11-03T19:43:44.724Z,7.01
2017-11-03T19:46:13.036Z,6.99
2017-11-03T19:48:41.389Z,6.94
2017-11-03T19:51:10.477Z,6.91
2017-11-03T19:53:39.572Z,6.87
2017-11-03T19:56:08.654Z,6.82
2017-11-03T19:58:36.963Z,6.81
2017-11-03T20:01:06.101Z,6.82
2017-11-03T20:03:34.462Z,6.80
2017-11-03T20:06:02.857Z,6.81
2017-11-03T20:08:31.223Z,6.82
2017-11-03T20:10:59.607Z,6.88
2017-11-03T20:13:27.952Z,6.88
2017-11-03T20:15:56.338Z,6.88
2017-11-03T20:18:24.721Z,6.85
2017-11-03T20:20:53.099Z,6.85
2017-11-03T20:23:21.409Z,6.87
2017-11-03T20:25:49.778Z,6.89
2017-11-03T20:28:18.087Z,6.91
2017-11-03T20:30:46.467Z,6.88
2017-11-03T20:33:14.792Z,6.86
2017-11-03T20:35:43.179Z,6.82
2017-11-03T20:38:11.478Z,6.84
2017-11-03T20:40:39.853Z,6.84
2017-11-03T20:43:08.180Z,6.78
2017-11-03T20:45:37.275Z,6.74
2017-11-03T20:48:05.641Z,6.76
2017-11-03T20:50:34.751Z,6.75
2017-11-03T20:53:03.078Z,6.74
2017-11-03T20:55:31.391Z,6.70
2017-11-03T20:58:00.485Z,6.68
2017-11-03T21:00:29.635Z,6.68
2017-11-03T21:02:57.945Z,6.65
2017-11-03T21:05:26.275Z,6.65
2017-11-03T21:07:54.646Z,6.59
2017-11-03T21:10:22.961Z,6.56
2017-11-03T21:12:51.354Z,6.51
2017-11-03T21:15:19.691Z,6.53
2017-11-03T21:17:48.049Z,6.50
2017-11-03T21:20:17.189Z,6.48
2017-11-03T21:22:45.566Z,6.45
2017-11-03T21:25:13.921Z,6.41
2017-11-03T21:27:42.283Z,6.46
2017-11-03T21:30:10.641Z,6.49
2017-11-03T21:32:39.005Z,6.46
2017-11-03T21:35:07.358Z,6.43
2017-11-03T21:37:35.746Z,6.44
2017-11-03T21:40:04.866Z,6.36
2017-11-03T21:42:33.198Z,6.32
2017-11-03T21:45:01.571Z,6.23
2017-11-03T21:47:29.883Z,6.19
2017-11-03T21:49:58.195Z,6.20
2017-11-03T21:52:27.338Z,6.18
2017-11-03T21:54:55.698Z,6.20
2017-11-03T21:57:24.014Z,6.25
2017-11-03T21:59:52.381Z,6.28
2017-11-03T22:02:20.745Z,6.32
2017-11-03T22:04:49.047Z,6.30
2017-11-03T22:07:17.415Z,6.28
2017-11-03T22:09:45.721Z,6.24
2017-11-03T22:12:14.087Z,6.24
2017-11-03T22:14:42.402Z,6.25
2017-11-03T22:17:10.726Z,6.23
2017-11-03T22:19:39.080Z,6.25
2017-11-03T22:22:07.950Z,6.28
2017-11-03T22:24:36.262Z,6.27
2017-11-03T22:27:05.478Z,6.22
2017-11-03T22:29:33.822Z,6.20
2017-11-03T22:32:02.192Z,6.18
2017-11-03T22:34:30.567Z,6.20
2017-11-03T22:36:58.929Z,6.24
2017-11-03T22:39:28.014Z,6.27
2017-11-03T22:41:56.316Z,6.24
2017-11-03T22:44:24.687Z,6.23
2017-11-03T22:46:53.006Z,6.21
2017-11-03T22:49:21.337Z,6.21
2017-11-03T22:51:50.402Z,6.22
2017-11-03T22:54:18.722Z,6.27
2017-11-03T22:56:47.030Z,6.28
2017-11-03T23:01:50.678Z,6.18
2017-11-03T23:04:19.087Z,6.17
2017-11-03T23:06:47.410Z,6.10
2017-11-03T23:09:15.747Z,6.09
2017-11-03T23:11:44.074Z,6.07
2017-11-03T23:14:12.445Z,6.09
2017-11-03T23:16:40.750Z,6.07
2017-11-03T23:19:09.118Z,6.01
2017-11-03T23:21:37.431Z,5.98
2017-11-03T23:24:06.515Z,5.97
2017-11-03T23:26:35.586Z,5.91
2017-11-03T23:29:03.903Z,5.87
2017-11-03T23:31:32.232Z,5.94
2017-11-03T23:34:00.599Z,5.94
2017-11-03T23:36:28.905Z,5.91
2017-11-03T23:38:57.219Z,5.88
2017-11-03T23:41:25.533Z,5.84
2017-11-03T23:43:53.857Z,5.82
2017-11-03T23:46:22.957Z,5.84
2017-11-03T23:48:52.038Z,5.80
2017-11-03T23:51:20.346Z,5.70
2017-11-03T23:53:48.672Z,5.74
2017-11-03T23:56:16.997Z,5.74
2017-11-03T23:58:45.325Z,5.71
